sensor_id;sensor_type;location;lat;lon;timestamp;temperature;humidity
18388;DHT22;9320;50.256;19.026;2023-03-01T00:01:19;0.60;91.20
18388;DHT22;9320;50.256;19.026;2023-03-01T00:03:48;0.50;91.40
18388;DHT22;9320;50.256;19.026;2023-03-01T00:06:16;0.60;91.50
18388;DHT22;9320;50.256;19.026;2023-03-01T00:08:44;0.60;91.30
18388;DHT22;9320;50.256;19.026;2023-03-01T00:11:15;0.70;91.40
18388;DHT22;9320;50.256;19.026;2023-03-01T00:13:44;0.80;91.20
18388;DHT22;9320;50.256;19.026;2023-03-01T00:16:15;0.80;90.90
18388;DHT22;9320;50.256;19.026;2023-03-01T00:18:44;0.60;91.30
18388;DHT22;9320;50.256;19.026;2023-03-01T00:21:13;0.80;91.40
18388;DHT22;9320;50.256;19.026;2023-03-01T00:23:41;0.80;91.10
18388;DHT22;9320;50.256;19.026;2023-03-01T00:26:11;0.80;91.00
18388;DHT22;9320;50.256;19.026;2023-03-01T00:28:40;0.80;91.00
18388;DHT22;9320;50.256;19.026;2023-03-01T00:31:10;0.80;91.20
18388;DHT22;9320;50.256;19.026;2023-03-01T00:33:39;0.90;91.00
18388;DHT22;9320;50.256;19.026;2023-03-01T00:36:10;1.00;90.90
18388;DHT22;9320;50.256;19.026;2023-03-01T00:38:39;1.10;90.70
18388;DHT22;9320;50.256;19.026;2023-03-01T00:41:09;0.90;90.60
18388;DHT22;9320;50.256;19.026;2023-03-01T00:43:37;0.90;91.10
18388;DHT22;9320;50.256;19.026;2023-03-01T00:46:08;0.90;91.10
18388;DHT22;9320;50.256;19.026;2023-03-01T00:48:36;1.00;91.00
18388;DHT22;9320;50.256;19.026;2023-03-01T00:51:05;1.10;90.80
18388;DHT22;9320;50.256;19.026;2023-03-01T00:53:35;1.10;90.70
18388;DHT22;9320;50.256;19.026;2023-03-01T00:56:05;1.10;90.60
18388;DHT22;9320;50.256;19.026;2023-03-01T00:58:34;1.00;90.60
18388;DHT22;9320;50.256;19.026;2023-03-01T01:01:07;0.80;91.30
18388;DHT22;9320;50.256;19.026;2023-03-01T01:03:46;0.90;91.30
18388;DHT22;9320;50.256;19.026;2023-03-01T01:06:16;1.00;90.80
18388;DHT22;9320;50.256;19.026;2023-03-01T01:08:46;0.90;91.10
18388;DHT22;9320;50.256;19.026;2023-03-01T01:11:15;0.90;91.30
18388;DHT22;9320;50.256;19.026;2023-03-01T01:13:44;1.00;91.10
18388;DHT22;9320;50.256;19.026;2023-03-01T01:16:13;1.10;91.00
18388;DHT22;9320;50.256;19.026;2023-03-01T01:18:41;1.10;91.00
18388;DHT22;9320;50.256;19.026;2023-03-01T01:21:11;1.20;90.80
18388;DHT22;9320;50.256;19.026;2023-03-01T01:23:40;1.30;90.70
18388;DHT22;9320;50.256;19.026;2023-03-01T01:26:12;1.30;90.50
18388;DHT22;9320;50.256;19.026;2023-03-01T01:28:41;1.30;90.60
18388;DHT22;9320;50.256;19.026;2023-03-01T01:31:09;1.20;90.80
18388;DHT22;9320;50.256;19.026;2023-03-01T01:33:38;1.20;90.60
18388;DHT22;9320;50.256;19.026;2023-03-01T01:36:06;1.30;90.50
18388;DHT22;9320;50.256;19.026;2023-03-01T01:38:35;1.10;90.50
18388;DHT22;9320;50.256;19.026;2023-03-01T01:41:04;0.80;90.90
18388;DHT22;9320;50.256;19.026;2023-03-01T01:43:36;0.90;91.30
18388;DHT22;9320;50.256;19.026;2023-03-01T01:46:06;0.90;91.20
18388;DHT22;9320;50.256;19.026;2023-03-01T01:48:45;1.00;91.10
18388;DHT22;9320;50.256;19.026;2023-03-01T01:51:18;0.90;91.50
18388;DHT22;9320;50.256;19.026;2023-03-01T01:53:47;0.90;91.20
18388;DHT22;9320;50.256;19.026;2023-03-01T01:56:17;0.90;91.30
18388;DHT22;9320;50.256;19.026;2023-03-01T01:58:47;1.00;91.00
18388;DHT22;9320;50.256;19.026;2023-03-01T02:01:16;0.70;91.40
18388;DHT22;9320;50.256;19.026;2023-03-01T02:03:46;0.70;91.60
18388;DHT22;9320;50.256;19.026;2023-03-01T02:06:20;0.80;91.50
18388;DHT22;9320;50.256;19.026;2023-03-01T02:08:50;0.80;91.60
18388;DHT22;9320;50.256;19.026;2023-03-01T02:11:20;0.90;91.60
18388;DHT22;9320;50.256;19.026;2023-03-01T02:13:50;0.90;91.20
18388;DHT22;9320;50.256;19.026;2023-03-01T02:16:19;0.90;91.30
18388;DHT22;9320;50.256;19.026;2023-03-01T02:18:47;0.90;91.30
18388;DHT22;9320;50.256;19.026;2023-03-01T02:21:37;0.90;91.20
18388;DHT22;9320;50.256;19.026;2023-03-01T02:24:25;0.70;91.20
18388;DHT22;9320;50.256;19.026;2023-03-01T02:26:56;0.60;92.00
18388;DHT22;9320;50.256;19.026;2023-03-01T02:29:27;0.70;91.80
18388;DHT22;9320;50.256;19.026;2023-03-01T02:31:58;0.70;91.80
18388;DHT22;9320;50.256;19.026;2023-03-01T02:34:27;0.70;91.80
18388;DHT22;9320;50.256;19.026;2023-03-01T02:36:58;0.60;91.80
18388;DHT22;9320;50.256;19.026;2023-03-01T02:39:30;0.40;92.10
18388;DHT22;9320;50.256;19.026;2023-03-01T02:41:59;0.20;93.20
18388;DHT22;9320;50.256;19.026;2023-03-01T02:44:28;0.30;93.30
18388;DHT22;9320;50.256;19.026;2023-03-01T02:46:56;0.30;93.20
18388;DHT22;9320;50.256;19.026;2023-03-01T02:49:27;0.20;93.10
18388;DHT22;9320;50.256;19.026;2023-03-01T02:52:11;0.20;93.50
18388;DHT22;9320;50.256;19.026;2023-03-01T02:54:46;0.20;93.20
18388;DHT22;9320;50.256;19.026;2023-03-01T02:57:16;0.30;93.20
18388;DHT22;9320;50.256;19.026;2023-03-01T02:59:46;0.40;92.90
18388;DHT22;9320;50.256;19.026;2023-03-01T03:02:21;0.30;92.80
18388;DHT22;9320;50.256;19.026;2023-03-01T03:05:08;0.30;93.00
18388;DHT22;9320;50.256;19.026;2023-03-01T03:07:39;0.30;93.10
18388;DHT22;9320;50.256;19.026;2023-03-01T03:10:11;0.30;92.70
18388;DHT22;9320;50.256;19.026;2023-03-01T03:12:40;0.30;93.00
18388;DHT22;9320;50.256;19.026;2023-03-01T03:15:10;0.20;92.70
18388;DHT22;9320;50.256;19.026;2023-03-01T03:17:41;0.30;92.90
18388;DHT22;9320;50.256;19.026;2023-03-01T03:20:14;0.20;92.60
18388;DHT22;9320;50.256;19.026;2023-03-01T03:22:46;0.10;92.70
18388;DHT22;9320;50.256;19.026;2023-03-01T03:25:15;0.00;92.80
18388;DHT22;9320;50.256;19.026;2023-03-01T03:27:45;-0.10;93.00
18388;DHT22;9320;50.256;19.026;2023-03-01T03:30:17;0.00;93.00
18388;DHT22;9320;50.256;19.026;2023-03-01T03:32:47;0.10;92.80
18388;DHT22;9320;50.256;19.026;2023-03-01T03:35:20;0.10;93.10
18388;DHT22;9320;50.256;19.026;2023-03-01T03:37:48;0.20;92.80
18388;DHT22;9320;50.256;19.026;2023-03-01T03:40:34;0.10;92.70
18388;DHT22;9320;50.256;19.026;2023-03-01T03:43:03;0.30;92.70
18388;DHT22;9320;50.256;19.026;2023-03-01T03:45:33;0.50;92.50
18388;DHT22;9320;50.256;19.026;2023-03-01T03:48:02;0.50;91.80
18388;DHT22;9320;50.256;19.026;2023-03-01T03:50:32;0.50;91.80
18388;DHT22;9320;50.256;19.026;2023-03-01T03:53:00;0.50;91.90
18388;DHT22;9320;50.256;19.026;2023-03-01T03:55:28;0.40;92.20
18388;DHT22;9320;50.256;19.026;2023-03-01T03:57:58;0.20;92.30
18388;DHT22;9320;50.256;19.026;2023-03-01T04:00:36;0.20;93.10
18388;DHT22;9320;50.256;19.026;2023-03-01T04:03:05;-0.10;93.40
18388;DHT22;9320;50.256;19.026;2023-03-01T04:05:33;-0.20;93.70
18388;DHT22;9320;50.256;19.026;2023-03-01T04:08:01;-0.20;94.00
18388;DHT22;9320;50.256;19.026;2023-03-01T04:10:36;-0.20;94.00
18388;DHT22;9320;50.256;19.026;2023-03-01T04:13:05;0.00;93.70
18388;DHT22;9320;50.256;19.026;2023-03-01T04:15:35;0.00;93.60
18388;DHT22;9320;50.256;19.026;2023-03-01T04:18:04;0.00;93.90
18388;DHT22;9320;50.256;19.026;2023-03-01T04:20:34;0.00;93.40
18388;DHT22;9320;50.256;19.026;2023-03-01T04:23:04;0.10;93.70
18388;DHT22;9320;50.256;19.026;2023-03-01T04:25:38;0.10;93.30
18388;DHT22;9320;50.256;19.026;2023-03-01T04:28:07;0.10;93.30
18388;DHT22;9320;50.256;19.026;2023-03-01T04:30:37;0.10;93.30
18388;DHT22;9320;50.256;19.026;2023-03-01T04:33:06;0.10;93.00
18388;DHT22;9320;50.256;19.026;2023-03-01T04:35:36;0.10;93.20
18388;DHT22;9320;50.256;19.026;2023-03-01T04:38:05;0.10;93.40
18388;DHT22;9320;50.256;19.026;2023-03-01T04:40:33;0.10;93.60
18388;DHT22;9320;50.256;19.026;2023-03-01T04:43:02;0.10;93.70
18388;DHT22;9320;50.256;19.026;2023-03-01T04:45:32;0.10;93.50
18388;DHT22;9320;50.256;19.026;2023-03-01T04:48:03;0.20;93.70
18388;DHT22;9320;50.256;19.026;2023-03-01T04:50:31;0.30;93.10
18388;DHT22;9320;50.256;19.026;2023-03-01T04:52:59;0.20;92.70
18388;DHT22;9320;50.256;19.026;2023-03-01T04:55:27;0.00;93.30
18388;DHT22;9320;50.256;19.026;2023-03-01T04:57:56;0.00;93.30
18388;DHT22;9320;50.256;19.026;2023-03-01T05:00:24;-0.10;93.40
18388;DHT22;9320;50.256;19.026;2023-03-01T05:02:54;-0.20;94.00
18388;DHT22;9320;50.256;19.026;2023-03-01T05:05:26;-0.10;93.90
18388;DHT22;9320;50.256;19.026;2023-03-01T05:07:55;-0.10;93.80
18388;DHT22;9320;50.256;19.026;2023-03-01T05:10:25;0.00;93.70
18388;DHT22;9320;50.256;19.026;2023-03-01T05:12:53;0.10;93.40
18388;DHT22;9320;50.256;19.026;2023-03-01T05:15:21;0.20;92.80
18388;DHT22;9320;50.256;19.026;2023-03-01T05:17:52;0.20;93.00
18388;DHT22;9320;50.256;19.026;2023-03-01T05:20:21;0.00;93.60
18388;DHT22;9320;50.256;19.026;2023-03-01T05:22:56;0.10;93.80
18388;DHT22;9320;50.256;19.026;2023-03-01T05:25:25;0.10;93.60
18388;DHT22;9320;50.256;19.026;2023-03-01T05:27:53;0.00;93.30
18388;DHT22;9320;50.256;19.026;2023-03-01T05:30:22;-0.20;94.30
18388;DHT22;9320;50.256;19.026;2023-03-01T05:32:50;0.00;94.10
18388;DHT22;9320;50.256;19.026;2023-03-01T05:35:22;-0.10;94.30
18388;DHT22;9320;50.256;19.026;2023-03-01T05:37:52;-0.30;94.50
18388;DHT22;9320;50.256;19.026;2023-03-01T05:40:22;-0.50;95.40
18388;DHT22;9320;50.256;19.026;2023-03-01T05:42:53;-0.50;96.30
18388;DHT22;9320;50.256;19.026;2023-03-01T05:45:22;-0.30;96.60
18388;DHT22;9320;50.256;19.026;2023-03-01T05:47:51;-0.10;95.70
18388;DHT22;9320;50.256;19.026;2023-03-01T05:50:21;-0.10;95.00
18388;DHT22;9320;50.256;19.026;2023-03-01T05:52:54;-0.20;95.70
18388;DHT22;9320;50.256;19.026;2023-03-01T05:55:24;0.00;95.40
18388;DHT22;9320;50.256;19.026;2023-03-01T05:57:54;-0.20;95.80
18388;DHT22;9320;50.256;19.026;2023-03-01T06:00:23;-0.30;95.90
18388;DHT22;9320;50.256;19.026;2023-03-01T06:02:51;-0.40;96.40
18388;DHT22;9320;50.256;19.026;2023-03-01T06:05:19;-0.50;96.70
18388;DHT22;9320;50.256;19.026;2023-03-01T06:07:47;-0.50;96.80
18388;DHT22;9320;50.256;19.026;2023-03-01T06:10:18;-0.50;96.80
18388;DHT22;9320;50.256;19.026;2023-03-01T06:12:47;-0.40;95.80
18388;DHT22;9320;50.256;19.026;2023-03-01T06:15:16;-0.30;96.20
18388;DHT22;9320;50.256;19.026;2023-03-01T06:17:45;-0.20;96.80
18388;DHT22;9320;50.256;19.026;2023-03-01T06:20:17;0.00;96.10
18388;DHT22;9320;50.256;19.026;2023-03-01T06:22:46;0.20;95.60
18388;DHT22;9320;50.256;19.026;2023-03-01T06:25:15;0.10;94.50
18388;DHT22;9320;50.256;19.026;2023-03-01T06:27:46;-0.10;95.90
18388;DHT22;9320;50.256;19.026;2023-03-01T06:30:17;-0.10;96.40
18388;DHT22;9320;50.256;19.026;2023-03-01T06:32:46;-0.10;95.60
18388;DHT22;9320;50.256;19.026;2023-03-01T06:35:15;-0.10;96.30
18388;DHT22;9320;50.256;19.026;2023-03-01T06:37:44;0.00;94.90
18388;DHT22;9320;50.256;19.026;2023-03-01T06:40:13;0.00;95.30
18388;DHT22;9320;50.256;19.026;2023-03-01T06:42:47;0.00;95.90
18388;DHT22;9320;50.256;19.026;2023-03-01T06:45:16;0.20;96.20
18388;DHT22;9320;50.256;19.026;2023-03-01T06:47:45;0.20;95.30
18388;DHT22;9320;50.256;19.026;2023-03-01T06:50:14;0.40;95.30
18388;DHT22;9320;50.256;19.026;2023-03-01T06:52:42;0.40;95.50
18388;DHT22;9320;50.256;19.026;2023-03-01T06:55:12;0.50;95.10
18388;DHT22;9320;50.256;19.026;2023-03-01T06:57:40;0.60;94.60
18388;DHT22;9320;50.256;19.026;2023-03-01T07:00:11;0.60;94.40
18388;DHT22;9320;50.256;19.026;2023-03-01T07:02:39;0.60;94.50
18388;DHT22;9320;50.256;19.026;2023-03-01T07:05:08;0.70;94.50
18388;DHT22;9320;50.256;19.026;2023-03-01T07:07:36;0.60;93.70
18388;DHT22;9320;50.256;19.026;2023-03-01T07:10:06;0.70;94.20
18388;DHT22;9320;50.256;19.026;2023-03-01T07:12:34;0.80;94.10
18388;DHT22;9320;50.256;19.026;2023-03-01T07:15:03;1.00;93.80
18388;DHT22;9320;50.256;19.026;2023-03-01T07:17:33;1.20;93.10
18388;DHT22;9320;50.256;19.026;2023-03-01T07:20:01;1.10;92.40
18388;DHT22;9320;50.256;19.026;2023-03-01T07:22:29;1.10;93.60
18388;DHT22;9320;50.256;19.026;2023-03-01T07:24:57;1.30;92.70
18388;DHT22;9320;50.256;19.026;2023-03-01T07:27:25;1.00;92.50
18388;DHT22;9320;50.256;19.026;2023-03-01T07:29:53;1.00;92.90
18388;DHT22;9320;50.256;19.026;2023-03-01T07:32:21;1.00;93.10
18388;DHT22;9320;50.256;19.026;2023-03-01T07:34:50;1.30;92.90
18388;DHT22;9320;50.256;19.026;2023-03-01T07:37:19;1.60;92.30
18388;DHT22;9320;50.256;19.026;2023-03-01T07:39:46;1.80;91.80
18388;DHT22;9320;50.256;19.026;2023-03-01T07:42:14;1.80;91.00
18388;DHT22;9320;50.256;19.026;2023-03-01T07:44:42;1.80;91.30
18388;DHT22;9320;50.256;19.026;2023-03-01T07:47:10;1.80;91.00
18388;DHT22;9320;50.256;19.026;2023-03-01T07:49:38;1.80;90.70
18388;DHT22;9320;50.256;19.026;2023-03-01T07:52:09;1.90;91.30
18388;DHT22;9320;50.256;19.026;2023-03-01T07:54:37;2.00;90.70
18388;DHT22;9320;50.256;19.026;2023-03-01T07:57:05;1.90;90.40
18388;DHT22;9320;50.256;19.026;2023-03-01T07:59:33;2.10;90.50
18388;DHT22;9320;50.256;19.026;2023-03-01T08:02:02;2.20;90.60
18388;DHT22;9320;50.256;19.026;2023-03-01T08:04:30;2.30;89.00
18388;DHT22;9320;50.256;19.026;2023-03-01T08:06:58;2.40;88.80
18388;DHT22;9320;50.256;19.026;2023-03-01T08:09:27;2.40;89.20
18388;DHT22;9320;50.256;19.026;2023-03-01T08:11:56;2.30;90.30
18388;DHT22;9320;50.256;19.026;2023-03-01T08:14:26;2.50;89.40
18388;DHT22;9320;50.256;19.026;2023-03-01T08:16:54;2.70;89.70
18388;DHT22;9320;50.256;19.026;2023-03-01T08:19:23;2.80;87.10
18388;DHT22;9320;50.256;19.026;2023-03-01T08:21:51;2.80;87.60
18388;DHT22;9320;50.256;19.026;2023-03-01T08:24:19;3.00;86.70
18388;DHT22;9320;50.256;19.026;2023-03-01T08:26:48;2.80;86.70
18388;DHT22;9320;50.256;19.026;2023-03-01T08:29:16;2.90;87.10
18388;DHT22;9320;50.256;19.026;2023-03-01T08:31:44;3.20;87.70
18388;DHT22;9320;50.256;19.026;2023-03-01T08:34:15;3.30;85.30
18388;DHT22;9320;50.256;19.026;2023-03-01T08:36:45;3.40;85.40
18388;DHT22;9320;50.256;19.026;2023-03-01T08:39:15;3.10;84.40
18388;DHT22;9320;50.256;19.026;2023-03-01T08:41:44;3.20;82.80
18388;DHT22;9320;50.256;19.026;2023-03-01T08:44:15;3.30;82.90
18388;DHT22;9320;50.256;19.026;2023-03-01T08:46:44;3.50;82.70
18388;DHT22;9320;50.256;19.026;2023-03-01T08:49:14;3.60;82.00
18388;DHT22;9320;50.256;19.026;2023-03-01T08:51:43;3.50;81.30
18388;DHT22;9320;50.256;19.026;2023-03-01T08:54:12;3.40;81.70
18388;DHT22;9320;50.256;19.026;2023-03-01T08:56:41;3.50;82.10
18388;DHT22;9320;50.256;19.026;2023-03-01T08:59:10;3.50;80.50
18388;DHT22;9320;50.256;19.026;2023-03-01T09:01:40;3.60;79.90
18388;DHT22;9320;50.256;19.026;2023-03-01T09:04:10;3.70;80.30
18388;DHT22;9320;50.256;19.026;2023-03-01T09:06:38;3.80;79.10
18388;DHT22;9320;50.256;19.026;2023-03-01T09:09:10;4.00;79.60
18388;DHT22;9320;50.256;19.026;2023-03-01T09:11:42;4.00;77.90
18388;DHT22;9320;50.256;19.026;2023-03-01T09:14:11;4.20;78.60
18388;DHT22;9320;50.256;19.026;2023-03-01T09:16:40;4.20;77.20
18388;DHT22;9320;50.256;19.026;2023-03-01T09:19:09;4.20;77.90
18388;DHT22;9320;50.256;19.026;2023-03-01T09:21:38;4.30;77.00
18388;DHT22;9320;50.256;19.026;2023-03-01T09:24:12;4.30;76.50
18388;DHT22;9320;50.256;19.026;2023-03-01T09:26:41;4.40;76.40
18388;DHT22;9320;50.256;19.026;2023-03-01T09:29:09;4.40;76.90
18388;DHT22;9320;50.256;19.026;2023-03-01T09:31:37;4.50;77.20
18388;DHT22;9320;50.256;19.026;2023-03-01T09:34:07;4.80;76.30
18388;DHT22;9320;50.256;19.026;2023-03-01T09:36:36;4.80;76.30
18388;DHT22;9320;50.256;19.026;2023-03-01T09:39:04;5.00;76.00
18388;DHT22;9320;50.256;19.026;2023-03-01T09:41:45;4.90;74.60
18388;DHT22;9320;50.256;19.026;2023-03-01T09:44:21;4.90;75.50
18388;DHT22;9320;50.256;19.026;2023-03-01T09:46:51;4.70;76.40
18388;DHT22;9320;50.256;19.026;2023-03-01T09:49:23;4.90;76.30
18388;DHT22;9320;50.256;19.026;2023-03-01T09:51:59;5.00;75.00
18388;DHT22;9320;50.256;19.026;2023-03-01T09:54:28;5.50;77.00
18388;DHT22;9320;50.256;19.026;2023-03-01T09:57:09;6.80;72.20
18388;DHT22;9320;50.256;19.026;2023-03-01T09:59:54;7.20;69.60
18388;DHT22;9320;50.256;19.026;2023-03-01T10:02:28;7.10;69.40
18388;DHT22;9320;50.256;19.026;2023-03-01T10:05:05;6.40;69.90
18388;DHT22;9320;50.256;19.026;2023-03-01T10:07:45;6.20;70.80
18388;DHT22;9320;50.256;19.026;2023-03-01T10:10:25;5.90;71.60
18388;DHT22;9320;50.256;19.026;2023-03-01T10:12:55;5.80;72.70
18388;DHT22;9320;50.256;19.026;2023-03-01T10:15:32;5.90;72.10
18388;DHT22;9320;50.256;19.026;2023-03-01T10:18:04;5.70;72.30
18388;DHT22;9320;50.256;19.026;2023-03-01T10:20:43;5.90;72.80
18388;DHT22;9320;50.256;19.026;2023-03-01T10:23:13;5.90;72.20
18388;DHT22;9320;50.256;19.026;2023-03-01T10:25:50;6.00;70.20
18388;DHT22;9320;50.256;19.026;2023-03-01T10:28:26;5.90;71.40
18388;DHT22;9320;50.256;19.026;2023-03-01T10:30:58;6.20;71.80
18388;DHT22;9320;50.256;19.026;2023-03-01T10:33:30;6.30;69.20
18388;DHT22;9320;50.256;19.026;2023-03-01T10:36:00;6.30;69.60
18388;DHT22;9320;50.256;19.026;2023-03-01T10:38:31;6.50;69.00
18388;DHT22;9320;50.256;19.026;2023-03-01T10:41:04;6.80;67.50
18388;DHT22;9320;50.256;19.026;2023-03-01T10:43:44;6.80;67.00
18388;DHT22;9320;50.256;19.026;2023-03-01T10:46:31;6.80;67.20
18388;DHT22;9320;50.256;19.026;2023-03-01T10:49:12;6.90;67.40
18388;DHT22;9320;50.256;19.026;2023-03-01T10:51:43;6.90;66.70
18388;DHT22;9320;50.256;19.026;2023-03-01T10:54:18;7.00;66.40
18388;DHT22;9320;50.256;19.026;2023-03-01T10:56:48;6.80;66.20
18388;DHT22;9320;50.256;19.026;2023-03-01T10:59:23;6.70;67.00
18388;DHT22;9320;50.256;19.026;2023-03-01T11:02:15;6.50;67.30
18388;DHT22;9320;50.256;19.026;2023-03-01T11:04:58;6.70;67.00
18388;DHT22;9320;50.256;19.026;2023-03-01T11:07:28;6.50;66.20
18388;DHT22;9320;50.256;19.026;2023-03-01T11:09:56;6.40;67.40
18388;DHT22;9320;50.256;19.026;2023-03-01T11:12:24;6.50;67.50
18388;DHT22;9320;50.256;19.026;2023-03-01T11:14:55;6.70;67.50
18388;DHT22;9320;50.256;19.026;2023-03-01T11:17:27;6.90;66.60
18388;DHT22;9320;50.256;19.026;2023-03-01T11:20:05;6.80;65.30
18388;DHT22;9320;50.256;19.026;2023-03-01T11:22:36;6.90;65.70
18388;DHT22;9320;50.256;19.026;2023-03-01T11:25:04;6.90;65.60
18388;DHT22;9320;50.256;19.026;2023-03-01T11:27:40;6.60;64.60
18388;DHT22;9320;50.256;19.026;2023-03-01T11:30:18;6.80;65.20
18388;DHT22;9320;50.256;19.026;2023-03-01T11:32:53;6.80;64.80
18388;DHT22;9320;50.256;19.026;2023-03-01T11:35:25;6.80;65.60
18388;DHT22;9320;50.256;19.026;2023-03-01T11:38:09;6.90;65.60
18388;DHT22;9320;50.256;19.026;2023-03-01T11:40:46;7.00;65.90
18388;DHT22;9320;50.256;19.026;2023-03-01T11:43:19;7.20;65.40
18388;DHT22;9320;50.256;19.026;2023-03-01T11:46:21;7.30;65.20
18388;DHT22;9320;50.256;19.026;2023-03-01T11:48:58;7.30;64.60
18388;DHT22;9320;50.256;19.026;2023-03-01T11:51:41;7.00;64.30
18388;DHT22;9320;50.256;19.026;2023-03-01T11:54:25;7.20;63.00
18388;DHT22;9320;50.256;19.026;2023-03-01T11:57:00;7.10;63.10
18388;DHT22;9320;50.256;19.026;2023-03-01T12:00:00;7.00;63.70
18388;DHT22;9320;50.256;19.026;2023-03-01T12:02:46;6.90;64.70
18388;DHT22;9320;50.256;19.026;2023-03-01T12:05:28;7.00;64.20
18388;DHT22;9320;50.256;19.026;2023-03-01T12:08:06;7.10;65.00
18388;DHT22;9320;50.256;19.026;2023-03-01T12:10:42;7.00;63.20
18388;DHT22;9320;50.256;19.026;2023-03-01T12:13:28;7.00;63.50
18388;DHT22;9320;50.256;19.026;2023-03-01T12:16:19;6.90;62.00
18388;DHT22;9320;50.256;19.026;2023-03-01T12:19:28;6.60;63.00
18388;DHT22;9320;50.256;19.026;2023-03-01T12:22:09;6.70;63.00
18388;DHT22;9320;50.256;19.026;2023-03-01T12:27:43;6.70;63.10
18388;DHT22;9320;50.256;19.026;2023-03-01T12:30:27;7.00;63.10
18388;DHT22;9320;50.256;19.026;2023-03-01T12:33:13;7.20;61.60
18388;DHT22;9320;50.256;19.026;2023-03-01T12:35:54;7.10;61.50
18388;DHT22;9320;50.256;19.026;2023-03-01T12:38:32;7.20;61.20
18388;DHT22;9320;50.256;19.026;2023-03-01T12:41:22;7.20;60.10
18388;DHT22;9320;50.256;19.026;2023-03-01T12:44:08;7.40;60.40
18388;DHT22;9320;50.256;19.026;2023-03-01T12:46:51;7.30;59.80
18388;DHT22;9320;50.256;19.026;2023-03-01T12:49:24;7.10;60.70
18388;DHT22;9320;50.256;19.026;2023-03-01T12:51:57;7.20;61.30
18388;DHT22;9320;50.256;19.026;2023-03-01T12:54:29;7.50;61.70
18388;DHT22;9320;50.256;19.026;2023-03-01T12:57:02;7.70;61.00
18388;DHT22;9320;50.256;19.026;2023-03-01T12:59:41;7.70;60.40
18388;DHT22;9320;50.256;19.026;2023-03-01T13:02:23;7.90;60.50
18388;DHT22;9320;50.256;19.026;2023-03-01T13:05:00;7.70;58.50
18388;DHT22;9320;50.256;19.026;2023-03-01T13:07:34;7.90;59.00
18388;DHT22;9320;50.256;19.026;2023-03-01T13:10:15;8.00;59.70
18388;DHT22;9320;50.256;19.026;2023-03-01T13:12:51;8.10;58.40
18388;DHT22;9320;50.256;19.026;2023-03-01T13:15:29;8.00;58.00
18388;DHT22;9320;50.256;19.026;2023-03-01T13:17:59;8.00;59.20
18388;DHT22;9320;50.256;19.026;2023-03-01T13:20:32;8.10;58.60
18388;DHT22;9320;50.256;19.026;2023-03-01T13:23:03;8.20;58.30
18388;DHT22;9320;50.256;19.026;2023-03-01T13:25:32;8.10;57.20
18388;DHT22;9320;50.256;19.026;2023-03-01T13:28:37;8.00;56.00
18388;DHT22;9320;50.256;19.026;2023-03-01T13:31:10;8.10;58.20
18388;DHT22;9320;50.256;19.026;2023-03-01T13:33:42;8.30;56.80
18388;DHT22;9320;50.256;19.026;2023-03-01T13:36:47;8.40;56.90
18388;DHT22;9320;50.256;19.026;2023-03-01T13:39:29;8.40;56.00
18388;DHT22;9320;50.256;19.026;2023-03-01T13:41:59;8.30;55.00
18388;DHT22;9320;50.256;19.026;2023-03-01T13:44:31;8.30;53.50
18388;DHT22;9320;50.256;19.026;2023-03-01T13:47:08;8.40;53.30
18388;DHT22;9320;50.256;19.026;2023-03-01T13:49:43;8.50;54.10
18388;DHT22;9320;50.256;19.026;2023-03-01T13:52:33;8.40;53.10
18388;DHT22;9320;50.256;19.026;2023-03-01T13:55:04;8.20;52.60
18388;DHT22;9320;50.256;19.026;2023-03-01T13:57:36;8.20;54.60
18388;DHT22;9320;50.256;19.026;2023-03-01T14:00:07;8.20;53.30
18388;DHT22;9320;50.256;19.026;2023-03-01T14:02:37;8.20;53.90
18388;DHT22;9320;50.256;19.026;2023-03-01T14:05:09;8.00;54.40
18388;DHT22;9320;50.256;19.026;2023-03-01T14:07:38;7.90;54.20
18388;DHT22;9320;50.256;19.026;2023-03-01T14:10:11;8.10;55.30
18388;DHT22;9320;50.256;19.026;2023-03-01T14:12:44;8.10;54.50
18388;DHT22;9320;50.256;19.026;2023-03-01T14:15:19;8.00;55.30
18388;DHT22;9320;50.256;19.026;2023-03-01T14:17:59;7.80;54.70
18388;DHT22;9320;50.256;19.026;2023-03-01T14:20:32;7.90;55.30
18388;DHT22;9320;50.256;19.026;2023-03-01T14:23:09;7.90;55.00
18388;DHT22;9320;50.256;19.026;2023-03-01T14:25:38;7.80;56.00
18388;DHT22;9320;50.256;19.026;2023-03-01T14:28:15;7.60;54.60
18388;DHT22;9320;50.256;19.026;2023-03-01T14:30:45;7.80;54.50
18388;DHT22;9320;50.256;19.026;2023-03-01T14:33:23;7.80;55.50
18388;DHT22;9320;50.256;19.026;2023-03-01T14:35:55;7.90;55.30
18388;DHT22;9320;50.256;19.026;2023-03-01T14:38:28;8.00;54.20
18388;DHT22;9320;50.256;19.026;2023-03-01T14:40:59;8.00;53.90
18388;DHT22;9320;50.256;19.026;2023-03-01T14:43:32;8.00;53.90
18388;DHT22;9320;50.256;19.026;2023-03-01T14:46:01;7.90;54.40
18388;DHT22;9320;50.256;19.026;2023-03-01T14:48:31;7.90;54.50
18388;DHT22;9320;50.256;19.026;2023-03-01T14:50:59;7.90;54.60
18388;DHT22;9320;50.256;19.026;2023-03-01T14:53:29;7.90;55.20
18388;DHT22;9320;50.256;19.026;2023-03-01T14:56:14;8.00;55.30
18388;DHT22;9320;50.256;19.026;2023-03-01T14:58:44;8.00;54.40
18388;DHT22;9320;50.256;19.026;2023-03-01T15:01:16;8.00;53.90
18388;DHT22;9320;50.256;19.026;2023-03-01T15:03:47;8.10;54.40
18388;DHT22;9320;50.256;19.026;2023-03-01T15:06:18;8.10;54.20
18388;DHT22;9320;50.256;19.026;2023-03-01T15:08:48;8.00;53.90
18388;DHT22;9320;50.256;19.026;2023-03-01T15:11:19;7.90;54.60
18388;DHT22;9320;50.256;19.026;2023-03-01T15:13:49;7.90;55.70
18388;DHT22;9320;50.256;19.026;2023-03-01T15:16:19;8.00;55.30
18388;DHT22;9320;50.256;19.026;2023-03-01T15:18:52;7.70;55.40
18388;DHT22;9320;50.256;19.026;2023-03-01T15:21:23;7.50;56.00
18388;DHT22;9320;50.256;19.026;2023-03-01T15:23:53;7.70;56.70
18388;DHT22;9320;50.256;19.026;2023-03-01T15:26:26;7.60;56.10
18388;DHT22;9320;50.256;19.026;2023-03-01T15:28:58;7.60;56.70
18388;DHT22;9320;50.256;19.026;2023-03-01T15:31:28;7.70;56.80
18388;DHT22;9320;50.256;19.026;2023-03-01T15:34:23;7.60;56.80
18388;DHT22;9320;50.256;19.026;2023-03-01T15:36:53;7.50;56.90
18388;DHT22;9320;50.256;19.026;2023-03-01T15:39:31;7.50;56.90
18388;DHT22;9320;50.256;19.026;2023-03-01T15:42:05;7.50;57.50
18388;DHT22;9320;50.256;19.026;2023-03-01T15:44:35;7.60;58.00
18388;DHT22;9320;50.256;19.026;2023-03-01T15:47:24;7.60;57.70
18388;DHT22;9320;50.256;19.026;2023-03-01T15:49:55;7.50;57.90
18388;DHT22;9320;50.256;19.026;2023-03-01T15:52:25;7.40;58.60
18388;DHT22;9320;50.256;19.026;2023-03-01T15:54:58;7.40;58.70
18388;DHT22;9320;50.256;19.026;2023-03-01T15:57:27;7.40;58.70
18388;DHT22;9320;50.256;19.026;2023-03-01T15:59:55;7.40;59.20
18388;DHT22;9320;50.256;19.026;2023-03-01T16:02:24;7.40;59.30
18388;DHT22;9320;50.256;19.026;2023-03-01T16:04:53;7.30;58.70
18388;DHT22;9320;50.256;19.026;2023-03-01T16:07:23;7.20;59.10
18388;DHT22;9320;50.256;19.026;2023-03-01T16:09:53;7.10;60.10
18388;DHT22;9320;50.256;19.026;2023-03-01T16:12:21;7.10;59.80
18388;DHT22;9320;50.256;19.026;2023-03-01T16:14:51;7.10;60.20
18388;DHT22;9320;50.256;19.026;2023-03-01T16:17:19;7.10;60.10
18388;DHT22;9320;50.256;19.026;2023-03-01T16:19:47;7.10;60.50